createdAt,value
2023-03-04T00:00:13.268Z,91.92
2023-03-04T00:03:02.121Z,97.57
2023-03-04T00:05:32.046Z,97.62
2023-03-04T00:08:02.260Z,99.29
2023-03-04T00:10:31.676Z,98.50
2023-03-04T00:13:00.951Z,98.32
2023-03-04T00:15:30.776Z,98.79
2023-03-04T00:17:59.969Z,97.33
2023-03-04T00:20:29.015Z,99.62
2023-03-04T00:22:58.109Z,99.91
2023-03-04T00:25:27.597Z,100.00
2023-03-04T00:27:57.269Z,98.16
2023-03-04T00:30:26.909Z,98.99
2023-03-04T00:32:56.651Z,96.21
2023-03-04T00:35:28.169Z,98.35
2023-03-04T00:37:58.483Z,99.56
2023-03-04T00:40:28.775Z,99.56
2023-03-04T00:42:59.145Z,99.91
2023-03-04T00:45:29.305Z,99.27
2023-03-04T00:47:58.736Z,98.24
2023-03-04T00:50:28.017Z,97.94
2023-03-04T00:52:57.775Z,97.96
2023-03-04T00:55:27.347Z,97.94
2023-03-04T00:57:57.189Z,98.65
2023-03-04T01:00:27.465Z,99.63
2023-03-04T01:02:56.568Z,100.00
2023-03-04T01:05:25.358Z,100.00
2023-03-04T01:07:56.093Z,97.71
2023-03-04T01:10:26.027Z,94.60
2023-03-04T01:12:55.953Z,94.14
2023-03-04T01:15:25.752Z,94.07
2023-03-04T01:17:55.919Z,94.19
2023-03-04T01:20:25.537Z,95.46
2023-03-04T01:22:54.520Z,99.13
2023-03-04T01:25:24.666Z,98.87
2023-03-04T01:27:54.591Z,99.23
2023-03-04T01:30:24.236Z,97.41
2023-03-04T01:32:54.214Z,96.73
2023-03-04T01:35:23.774Z,97.98
2023-03-04T01:37:54.039Z,98.52
2023-03-04T01:40:23.827Z,99.91
2023-03-04T01:42:53.611Z,100.00
2023-03-04T01:45:23.078Z,100.00
2023-03-04T01:47:53.843Z,100.00
2023-03-04T01:50:34.591Z,100.00
2023-03-04T01:53:04.964Z,100.00
2023-03-04T01:55:36.802Z,100.00
2023-03-04T01:58:10.661Z,100.00
2023-03-04T02:00:41.615Z,100.00
2023-03-04T02:03:16.028Z,100.00
2023-03-04T02:05:49.079Z,100.00
2023-03-04T02:08:20.981Z,100.00
2023-03-04T02:10:52.294Z,100.00
2023-03-04T02:13:22.898Z,100.00
2023-03-04T02:15:55.076Z,100.00
2023-03-04T02:18:25.977Z,100.00
2023-03-04T02:21:25.983Z,100.00
2023-03-04T02:24:52.930Z,100.00
2023-03-04T02:27:23.093Z,100.00
2023-03-04T02:29:51.934Z,100.00
2023-03-04T02:32:21.487Z,100.00
2023-03-04T02:34:53.517Z,100.00
2023-03-04T02:37:23.635Z,99.54
2023-03-04T02:39:54.768Z,97.06
2023-03-04T02:42:24.782Z,96.94
2023-03-04T02:45:02.723Z,96.91
2023-03-04T02:47:33.317Z,96.81
2023-03-04T02:50:05.975Z,97.34
2023-03-04T02:52:36.675Z,97.47
2023-03-04T02:55:07.443Z,97.33
2023-03-04T02:57:39.217Z,97.46
2023-03-04T03:00:10.885Z,98.03
2023-03-04T03:02:41.367Z,99.13
2023-03-04T03:05:12.777Z,99.92
2023-03-04T03:07:43.793Z,100.00
2023-03-04T03:10:14.063Z,100.00
2023-03-04T03:12:44.597Z,100.00
2023-03-04T03:15:16.190Z,100.00
2023-03-04T03:17:46.359Z,100.00
2023-03-04T03:20:17.793Z,100.00
2023-03-04T03:22:47.409Z,100.00
2023-03-04T03:25:18.159Z,100.00
2023-03-04T03:27:49.027Z,100.00
2023-03-04T03:30:20.448Z,100.00
2023-03-04T03:32:51.987Z,100.00
2023-03-04T03:35:23.097Z,100.00
2023-03-04T03:37:56.610Z,100.00
2023-03-04T03:40:27.473Z,100.00
2023-03-04T03:42:58.740Z,100.00
2023-03-04T03:45:30.679Z,100.00
2023-03-04T03:48:01.494Z,100.00
2023-03-04T03:50:31.662Z,100.00
2023-03-04T03:53:02.956Z,100.00
2023-03-04T03:55:32.744Z,100.00
2023-03-04T03:58:03.193Z,100.00
2023-03-04T04:00:34.615Z,100.00
2023-03-04T04:03:04.341Z,100.00
2023-03-04T04:05:34.901Z,100.00
2023-03-04T04:08:05.072Z,100.00
2023-03-04T04:10:34.109Z,100.00
2023-03-04T04:13:03.882Z,100.00
2023-03-04T04:15:34.528Z,100.00
2023-03-04T04:18:04.426Z,100.00
2023-03-04T04:20:35.059Z,100.00
2023-03-04T04:23:05.751Z,100.00
2023-03-04T04:25:35.927Z,100.00
2023-03-04T04:28:05.881Z,100.00
2023-03-04T04:30:36.294Z,100.00
2023-03-04T04:33:05.161Z,100.00
2023-03-04T04:35:39.197Z,100.00
2023-03-04T04:38:10.159Z,100.00
2023-03-04T04:40:40.221Z,100.00
2023-03-04T04:43:10.147Z,100.00
2023-03-04T04:45:40.108Z,100.00
2023-03-04T04:48:10.400Z,100.00
2023-03-04T04:50:40.240Z,100.00
2023-03-04T04:53:13.747Z,100.00
2023-03-04T04:55:42.552Z,100.00
2023-03-04T04:58:11.337Z,100.00
2023-03-04T05:00:41.253Z,100.00
2023-03-04T05:03:10.248Z,100.00
2023-03-04T05:05:39.456Z,100.00
2023-03-04T05:08:08.666Z,100.00
2023-03-04T05:10:37.644Z,100.00
2023-03-04T05:13:06.855Z,100.00
2023-03-04T05:15:39.253Z,100.00
2023-03-04T05:18:08.123Z,100.00
2023-03-04T05:20:37.194Z,100.00
2023-03-04T05:23:06.742Z,100.00
2023-03-04T05:25:35.600Z,100.00
2023-03-04T05:28:05.695Z,100.00
2023-03-04T05:30:34.608Z,100.00
2023-03-04T05:33:03.287Z,100.00
2023-03-04T05:35:32.605Z,100.00
2023-03-04T05:38:01.474Z,100.00
2023-03-04T05:40:31.086Z,100.00
2023-03-04T05:43:00.182Z,100.00
2023-03-04T05:45:29.525Z,100.00
2023-03-04T05:47:58.676Z,100.00
2023-03-04T05:50:28.180Z,100.00
2023-03-04T05:52:57.796Z,100.00
2023-03-04T05:55:29.506Z,100.00
2023-03-04T05:57:58.854Z,100.00
2023-03-04T06:00:27.947Z,100.00
2023-03-04T06:02:56.886Z,100.00
2023-03-04T06:05:26.186Z,100.00
2023-03-04T06:07:55.013Z,100.00
2023-03-04T06:10:24.120Z,100.00
2023-03-04T06:12:52.905Z,100.00
2023-03-04T06:15:21.687Z,100.00
2023-03-04T06:17:51.807Z,100.00
2023-03-04T06:20:21.013Z,100.00
2023-03-04T06:22:50.515Z,100.00
2023-03-04T06:25:19.713Z,100.00
2023-03-04T06:27:50.548Z,100.00
2023-03-04T06:30:19.947Z,100.00
2023-03-04T06:32:48.638Z,100.00
2023-03-04T06:35:18.153Z,100.00
2023-03-04T06:37:47.125Z,100.00
2023-03-04T06:40:16.332Z,100.00
2023-03-04T06:42:45.423Z,100.00
2023-03-04T06:45:14.318Z,100.00
2023-03-04T06:47:43.506Z,100.00
2023-03-04T06:50:13.656Z,100.00
2023-03-04T06:52:42.435Z,100.00
2023-03-04T06:55:11.283Z,99.87
2023-03-04T06:57:40.193Z,99.53
2023-03-04T07:00:10.001Z,99.43
2023-03-04T07:02:39.093Z,99.77
2023-03-04T07:05:08.418Z,100.00
2023-03-04T07:07:37.191Z,100.00
2023-03-04T07:10:06.851Z,100.00
2023-03-04T07:12:35.936Z,100.00
2023-03-04T07:15:06.028Z,100.00
2023-03-04T07:17:35.171Z,99.93
2023-03-04T07:20:04.411Z,99.39
2023-03-04T07:22:33.094Z,99.20
2023-03-04T07:25:02.090Z,99.19
2023-03-04T07:27:31.380Z,99.51
2023-03-04T07:30:00.166Z,99.10
2023-03-04T07:32:29.955Z,99.43
2023-03-04T07:34:58.767Z,99.55
2023-03-04T07:37:27.765Z,99.62
2023-03-04T07:39:56.448Z,99.23
2023-03-04T07:42:25.133Z,99.38
2023-03-04T07:44:58.120Z,98.97
2023-03-04T07:47:26.699Z,97.81
2023-03-04T07:49:56.819Z,97.60
2023-03-04T07:52:25.608Z,96.85
2023-03-04T07:54:54.297Z,95.23
2023-03-04T07:57:23.389Z,94.12
2023-03-04T07:59:52.183Z,91.69
2023-03-04T08:02:21.404Z,90.68
2023-03-04T08:04:50.057Z,88.73
2023-03-04T08:07:18.857Z,89.48
2023-03-04T08:09:47.750Z,88.94
2023-03-04T08:12:16.530Z,88.34
2023-03-04T08:14:46.131Z,86.99
2023-03-04T08:17:17.384Z,87.05
2023-03-04T08:19:46.177Z,83.20
2023-03-04T08:22:14.858Z,84.90
2023-03-04T08:24:43.751Z,81.88
2023-03-04T08:27:12.433Z,82.00
2023-03-04T08:29:41.325Z,75.77
2023-03-04T08:32:10.485Z,74.57
2023-03-04T08:34:41.125Z,75.25
2023-03-04T08:37:09.839Z,75.00
2023-03-04T08:39:38.414Z,72.75
2023-03-04T08:42:07.404Z,70.40
2023-03-04T08:44:36.100Z,69.12
2023-03-04T08:47:04.894Z,66.50
2023-03-04T08:49:36.123Z,64.97
2023-03-04T08:52:05.355Z,63.82
2023-03-04T08:54:34.320Z,61.77
2023-03-04T08:57:04.026Z,60.07
2023-03-04T08:59:33.023Z,59.24
2023-03-04T09:02:01.721Z,59.68
2023-03-04T09:04:30.396Z,58.93
2023-03-04T09:06:59.173Z,60.27
2023-03-04T09:09:28.270Z,60.12
2023-03-04T09:11:56.956Z,59.20
2023-03-04T09:14:25.643Z,57.03
2023-03-04T09:16:54.332Z,57.68
2023-03-04T09:19:23.532Z,56.92
2023-03-04T09:21:52.216Z,56.91
2023-03-04T09:24:21.712Z,57.80
2023-03-04T09:26:51.854Z,59.80
2023-03-04T09:40:42.581Z,58.06
2023-03-04T09:43:27.912Z,54.46
2023-03-04T09:46:01.914Z,51.97
2023-03-04T09:48:42.277Z,51.86
2023-03-04T09:51:34.104Z,52.87
2023-03-04T09:54:29.323Z,54.70
2023-03-04T09:57:11.618Z,55.07
2023-03-04T09:59:50.742Z,55.53
2023-03-04T10:02:46.357Z,55.74
2023-03-04T10:05:20.056Z,56.00
2023-03-04T10:08:03.182Z,56.43
2023-03-04T10:10:39.872Z,56.56
2023-03-04T10:13:17.521Z,57.28
2023-03-04T10:15:51.712Z,56.92
2023-03-04T10:18:30.548Z,56.87
2023-03-04T10:21:32.354Z,56.47
2023-03-04T10:24:18.247Z,56.66
2023-03-04T10:26:51.455Z,55.80
2023-03-04T10:29:24.526Z,55.36
2023-03-04T10:31:56.374Z,56.05
2023-03-04T10:34:25.375Z,56.58
2023-03-04T10:36:59.990Z,56.33
2023-03-04T10:39:32.260Z,55.19
2023-03-04T10:42:21.109Z,54.97
2023-03-04T10:44:59.432Z,52.41
2023-03-04T10:47:30.686Z,49.69
2023-03-04T10:50:02.660Z,48.28
2023-03-04T10:52:46.987Z,45.63
2023-03-04T10:55:19.421Z,44.85
2023-03-04T10:58:04.110Z,44.35
2023-03-04T11:00:35.489Z,45.41
2023-03-04T11:03:31.213Z,45.44
2023-03-04T11:06:11.749Z,48.00
2023-03-04T11:08:41.861Z,47.95
2023-03-04T11:11:34.937Z,49.11
2023-03-04T11:14:31.049Z,49.65
2023-03-04T11:17:16.832Z,47.87
2023-03-04T11:19:53.611Z,46.28
2023-03-04T11:22:24.808Z,46.64
2023-03-04T11:24:58.878Z,46.75
2023-03-04T11:27:42.927Z,47.99
2023-03-04T11:30:44.578Z,48.15
2023-03-04T11:33:42.586Z,48.27
2023-03-04T11:36:47.783Z,49.24
2023-03-04T11:39:39.216Z,50.25
2023-03-04T11:42:46.000Z,48.96
2023-03-04T11:45:28.343Z,45.93
2023-03-04T11:48:07.331Z,44.62
2023-03-04T11:50:35.825Z,41.47
2023-03-04T11:53:23.142Z,40.73
2023-03-04T11:56:10.864Z,40.60
2023-03-04T11:58:45.290Z,41.65
2023-03-04T12:01:33.636Z,39.54
2023-03-04T12:04:13.975Z,40.24
2023-03-04T12:06:54.870Z,41.07
2023-03-04T12:09:33.795Z,41.43
2023-03-04T12:12:27.572Z,41.81
2023-03-04T12:15:30.996Z,41.82
2023-03-04T12:18:19.364Z,41.45
2023-03-04T12:21:03.152Z,38.88
2023-03-04T12:23:43.815Z,37.70
2023-03-04T12:26:30.951Z,37.75
2023-03-04T12:29:08.847Z,35.22
2023-03-04T12:31:43.494Z,34.67
2023-03-04T12:34:35.092Z,34.62
2023-03-04T12:37:28.555Z,34.99
2023-03-04T12:40:17.310Z,35.24
2023-03-04T12:43:04.939Z,36.10
2023-03-04T12:45:52.656Z,37.25
2023-03-04T12:48:35.954Z,37.11
2023-03-04T12:51:23.425Z,37.77
2023-03-04T12:54:03.990Z,38.96
2023-03-04T13:10:20.441Z,38.52
2023-03-04T13:12:59.391Z,39.15
2023-03-04T13:15:37.076Z,40.08
2023-03-04T13:18:31.650Z,40.87
2023-03-04T13:21:12.505Z,39.98
2023-03-04T13:23:41.297Z,37.55
2023-03-04T13:26:33.326Z,35.67
2023-03-04T13:29:13.791Z,34.50
2023-03-04T13:32:10.420Z,33.26
2023-03-04T13:34:58.304Z,32.78
2023-03-04T13:37:37.815Z,32.44
2023-03-04T13:40:23.747Z,32.50
2023-03-04T13:42:52.696Z,33.07
2023-03-04T13:45:30.834Z,32.94
2023-03-04T13:48:00.857Z,31.89
2023-03-04T13:50:35.844Z,31.50
2023-03-04T13:53:29.718Z,32.35
2023-03-04T13:56:09.765Z,32.19
2023-03-04T13:58:39.661Z,32.48
2023-03-04T14:01:24.035Z,33.19
2023-03-04T14:03:53.247Z,33.45
2023-03-04T14:06:32.059Z,33.55
2023-03-04T14:09:01.047Z,31.96
2023-03-04T14:11:42.651Z,31.31
2023-03-04T14:14:14.721Z,31.20
2023-03-04T14:16:52.739Z,31.04
2023-03-04T14:19:32.245Z,30.95
2023-03-04T14:22:01.367Z,31.19
2023-03-04T14:24:31.422Z,32.89
2023-03-04T14:27:14.605Z,33.90
2023-03-04T14:29:43.269Z,35.22
2023-03-04T14:32:12.810Z,36.40
2023-03-04T14:34:42.382Z,36.65
2023-03-04T14:37:27.554Z,38.07
2023-03-04T14:39:59.231Z,39.24
2023-03-04T14:42:38.342Z,39.86
2023-03-04T14:45:10.365Z,40.70
2023-03-04T14:47:46.286Z,41.08
2023-03-04T14:50:18.219Z,41.19
2023-03-04T14:53:03.707Z,42.07
2023-03-04T14:55:32.492Z,42.75
2023-03-04T14:58:24.329Z,42.66
2023-03-04T15:01:17.229Z,42.86
2023-03-04T15:04:05.275Z,43.05
2023-03-04T15:06:39.585Z,43.48
2023-03-04T15:09:19.377Z,43.94
2023-03-04T15:12:06.902Z,44.43
2023-03-04T15:14:42.860Z,44.23
2023-03-04T15:17:27.214Z,44.97
2023-03-04T15:20:08.105Z,45.04
2023-03-04T15:22:50.001Z,44.74
2023-03-04T15:25:20.417Z,45.44
2023-03-04T15:27:50.814Z,45.67
2023-03-04T15:30:24.186Z,46.49
2023-03-04T15:32:52.828Z,46.51
2023-03-04T15:35:22.443Z,46.42
2023-03-04T15:37:54.893Z,45.68
2023-03-04T15:40:47.646Z,45.28
2023-03-04T15:43:22.094Z,45.89
2023-03-04T15:45:52.633Z,45.79
2023-03-04T15:48:24.344Z,47.02
2023-03-04T15:51:02.038Z,47.46
2023-03-04T15:53:50.697Z,48.13
2023-03-04T15:56:45.704Z,48.89
2023-03-04T15:59:18.075Z,50.23
2023-03-04T16:01:49.626Z,50.87
2023-03-04T16:04:23.456Z,51.55
2023-03-04T16:06:52.214Z,52.72
2023-03-04T16:09:23.255Z,53.61
2023-03-04T16:11:53.582Z,54.23
2023-03-04T16:14:29.840Z,54.68
2023-03-04T16:17:04.272Z,55.15
2023-03-04T16:19:38.785Z,55.31
2023-03-04T16:22:07.978Z,55.46
2023-03-04T16:24:48.546Z,55.98
2023-03-04T16:27:18.576Z,56.35
2023-03-04T16:29:47.053Z,56.69
2023-03-04T16:32:15.812Z,56.82
2023-03-04T16:34:44.521Z,57.19
2023-03-04T16:37:17.721Z,57.55
2023-03-04T16:39:49.577Z,57.59
2023-03-04T16:42:22.350Z,58.01
2023-03-04T16:44:51.502Z,58.66
2023-03-04T16:47:21.265Z,58.99
2023-03-04T16:49:53.158Z,59.00
2023-03-04T16:52:27.916Z,59.54
2023-03-04T16:54:58.062Z,59.81
2023-03-04T16:57:28.997Z,60.43
2023-03-04T16:59:58.097Z,60.90
2023-03-04T17:02:27.338Z,60.66
2023-03-04T17:04:58.744Z,61.64
2023-03-04T17:07:27.343Z,60.94
2023-03-04T17:09:56.013Z,61.49
2023-03-04T17:12:25.517Z,62.09
2023-03-04T17:14:54.204Z,62.08
2023-03-04T17:17:22.894Z,62.70
2023-03-04T17:19:51.678Z,63.04
2023-03-04T17:22:20.770Z,63.53
2023-03-04T17:24:50.069Z,63.13
2023-03-04T17:27:18.861Z,63.50
2023-03-04T17:29:49.290Z,64.10
2023-03-04T17:32:17.795Z,64.06
2023-03-04T17:34:50.141Z,64.72
2023-03-04T17:37:19.717Z,64.16
2023-03-04T17:39:48.840Z,64.34
2023-03-04T17:42:17.838Z,63.84
2023-03-04T17:44:46.417Z,64.10
2023-03-04T17:47:16.234Z,63.96
2023-03-04T17:49:44.811Z,63.85
2023-03-04T17:52:13.403Z,63.74
2023-03-04T17:54:42.078Z,64.04
2023-03-04T17:57:11.585Z,63.92
2023-03-04T17:59:43.248Z,65.23
2023-03-04T18:02:16.246Z,64.59
2023-03-04T18:04:49.317Z,64.03
2023-03-04T18:07:18.629Z,65.51
2023-03-04T18:09:47.708Z,65.11
2023-03-04T18:12:16.292Z,64.56
2023-03-04T18:14:44.984Z,64.59
2023-03-04T18:17:13.461Z,65.49
2023-03-04T18:19:42.044Z,66.55
2023-03-04T18:22:11.756Z,67.65
2023-03-04T18:24:41.563Z,68.03
2023-03-04T18:27:10.147Z,67.41
2023-03-04T18:29:38.739Z,67.04
2023-03-04T18:32:07.385Z,67.64
2023-03-04T18:34:36.204Z,68.23
2023-03-04T18:37:05.099Z,69.66
2023-03-04T18:39:33.782Z,69.51
2023-03-04T18:42:02.978Z,69.21
2023-03-04T18:44:31.772Z,67.61
2023-03-04T18:47:00.559Z,68.54
2023-03-04T18:49:29.650Z,69.14
2023-03-04T18:51:58.345Z,68.57
2023-03-04T18:54:34.398Z,68.25
2023-03-04T18:57:11.068Z,67.90
2023-03-04T18:59:52.669Z,69.93
2023-03-04T19:02:26.259Z,69.66
2023-03-04T19:04:58.024Z,71.14
2023-03-04T19:07:27.315Z,71.84
2023-03-04T19:09:55.797Z,72.58
2023-03-04T19:12:30.423Z,71.52
2023-03-04T19:15:01.361Z,69.26
2023-03-04T19:17:32.911Z,68.71
2023-03-04T19:20:02.263Z,68.34
2023-03-04T19:22:30.692Z,68.23
2023-03-04T19:24:59.381Z,70.31
2023-03-04T19:27:28.065Z,71.24
2023-03-04T19:29:56.855Z,72.98
2023-03-04T19:32:26.653Z,71.34
2023-03-04T19:34:55.246Z,69.77
2023-03-04T19:37:24.237Z,68.71
2023-03-04T19:39:54.872Z,69.26
2023-03-04T19:42:24.476Z,69.90
2023-03-04T19:44:53.569Z,71.84
2023-03-04T19:47:22.871Z,72.93
2023-03-04T19:49:51.453Z,73.72
2023-03-04T19:52:20.352Z,73.59
2023-03-04T19:54:48.933Z,73.57
2023-03-04T19:57:18.521Z,73.11
2023-03-04T19:59:50.907Z,72.85
2023-03-04T20:02:19.701Z,72.07
2023-03-04T20:04:50.943Z,72.06
2023-03-04T20:07:19.735Z,73.42
2023-03-04T20:09:48.518Z,73.16
2023-03-04T20:12:20.784Z,73.73
2023-03-04T20:14:51.442Z,74.23
2023-03-04T20:17:20.003Z,74.14
2023-03-04T20:19:48.784Z,73.54
2023-03-04T20:22:19.934Z,74.32
2023-03-04T20:24:48.719Z,75.81
2023-03-04T20:27:20.351Z,75.25
2023-03-04T20:29:49.666Z,75.68
2023-03-04T20:32:18.259Z,75.60
2023-03-04T20:34:49.810Z,75.43
2023-03-04T20:37:18.286Z,77.03
2023-03-04T20:39:47.072Z,77.42
2023-03-04T20:42:19.249Z,77.17
2023-03-04T20:44:47.717Z,76.85
2023-03-04T20:47:16.407Z,75.91
2023-03-04T20:49:44.991Z,75.33
2023-03-04T20:52:16.849Z,74.97
2023-03-04T20:54:45.742Z,74.90
2023-03-04T20:57:14.323Z,74.74
2023-03-04T20:59:43.012Z,75.55
2023-03-04T21:02:15.503Z,76.07
2023-03-04T21:04:44.335Z,75.43
2023-03-04T21:07:14.909Z,74.83
2023-03-04T21:09:44.410Z,74.77
2023-03-04T21:12:17.801Z,74.90
2023-03-04T21:14:47.728Z,74.53
2023-03-04T21:17:18.141Z,74.47
2023-03-04T21:19:46.839Z,75.20
2023-03-04T21:22:18.199Z,76.71
2023-03-04T21:24:50.156Z,76.19
2023-03-04T21:27:21.900Z,75.87
2023-03-04T21:29:53.169Z,76.71
2023-03-04T21:32:27.016Z,76.40
2023-03-04T21:34:56.482Z,75.49
2023-03-04T21:37:29.760Z,76.65
2023-03-04T21:39:58.646Z,79.69
2023-03-04T21:42:27.341Z,83.21
2023-03-04T21:44:56.041Z,84.16
2023-03-04T21:47:26.063Z,84.15
2023-03-04T21:49:54.742Z,83.76
2023-03-04T21:52:27.224Z,83.11
2023-03-04T21:54:56.523Z,85.37
2023-03-04T21:57:25.318Z,86.04
2023-03-04T21:59:57.164Z,84.81
2023-03-04T22:02:25.944Z,84.60
2023-03-04T22:04:58.136Z,82.41
2023-03-04T22:07:29.780Z,81.25
2023-03-04T22:09:59.792Z,80.26
2023-03-04T22:12:28.586Z,81.01
2023-03-04T22:14:57.514Z,80.72
2023-03-04T22:17:26.809Z,80.28
2023-03-04T22:19:59.152Z,80.29
2023-03-04T22:22:30.710Z,80.19
2023-03-04T22:25:02.784Z,80.08
2023-03-04T22:27:44.463Z,81.62
2023-03-04T22:30:17.972Z,81.39
2023-03-04T22:32:51.472Z,81.10
2023-03-04T22:35:20.353Z,81.20
2023-03-04T22:37:52.014Z,80.37
2023-03-04T22:40:21.214Z,80.16
2023-03-04T22:42:53.217Z,79.44
2023-03-04T22:45:28.222Z,79.61
2023-03-04T22:47:57.109Z,80.16
2023-03-04T22:50:29.207Z,79.63
2023-03-04T22:52:58.250Z,81.11
2023-03-04T22:55:27.051Z,82.50
2023-03-04T22:57:56.058Z,82.48
2023-03-04T23:00:30.038Z,83.32
2023-03-04T23:02:59.245Z,85.79
2023-03-04T23:05:28.869Z,88.67
2023-03-04T23:07:57.833Z,88.92
2023-03-04T23:10:27.116Z,86.75
2023-03-04T23:13:09.228Z,87.66
2023-03-04T23:15:40.410Z,87.02
2023-03-04T23:18:12.338Z,86.64
2023-03-04T23:20:43.802Z,86.44
2023-03-04T23:23:12.776Z,83.59
2023-03-04T23:25:41.907Z,86.49
2023-03-04T23:28:10.763Z,88.71
2023-03-04T23:30:41.928Z,91.31
2023-03-04T23:33:12.091Z,91.96
2023-03-04T23:35:41.199Z,91.04
2023-03-04T23:38:15.793Z,87.14
2023-03-04T23:40:46.102Z,86.54
2023-03-04T23:43:14.970Z,87.53
2023-03-04T23:45:44.747Z,90.93
2023-03-04T23:48:15.415Z,90.70
2023-03-04T23:50:51.936Z,91.64
2023-03-04T23:53:21.428Z,92.00
2023-03-04T23:55:55.496Z,93.71
2023-03-04T23:58:30.370Z,95.76
